Scout — WCZ2046 — position and weather

sailwx.info

Track history (hours):
 
Tides and Currents Weather Stations Pressure Air Temp Water Temp Dewpoint Dewpoint Depression Visibility Wind Speed Wind Dir Waves Ship Positions

Scout

Owner: CROWLEY MARINE SERVICES INC, SEATTLE, WA. More information available from US FCC via Universal Licensing System and Coast Guard Vessel Documentation Center.

Last reported at 2015-Feb-27 01:30 UTC. Time now 2015-Feb-27 07:34 UTC.
Position N 32°42' W 117°09'.

; draft 5.6 m.

Type: Tug. MMSI: 366764730.

Date/timePositionNaut miles runAvg speedWind from/ knotsBaromVisibWave heightAir tempDewpointWater temp
2015-Feb-27 01:30N 32°42' W 117°09'0 0.0
2015-Feb-26 20:33N 32°42' W 117°09'0 0.0
2015-Feb-26 17:06N 32°42' W 117°09'0 0.0
2015-Feb-26 16:15N 32°42' W 117°09'3 4.4
2015-Feb-26 15:29N 32°39' W 117°07'3 3.7
2015-Feb-26 14:33N 32°42' W 117°09'0 0.0
2015-Feb-26 11:15N 32°42' W 117°09'0 0.0
2015-Feb-26 10:28N 32°42' W 117°09'0 0.0
2015-Feb-26 09:25N 32°42' W 117°09'0 0.1
2015-Feb-26 08:33N 32°42' W 117°09'3 3.4
2015-Feb-26 07:34N 32°39' W 117°07'1 0.9
2015-Feb-26 06:33N 32°40' W 117°08'2 2.2
2015-Feb-26 05:26N 32°42' W 117°09'0 0.0
2015-Feb-26 04:13N 32°42' W 117°09'0 0.0
2015-Feb-26 03:26N 32°42' W 117°09'0 0.0
2015-Feb-26 02:10N 32°42' W 117°09'0 0.0
2015-Feb-26 01:30N 32°42' W 117°09'0 0.0
2015-Feb-26 00:24N 32°42' W 117°09'0 0.5
2015-Feb-25 23:33N 32°42' W 117°10'0 0.4
2015-Feb-25 22:28N 32°42' W 117°09'0 0.0
2015-Feb-25 21:11N 32°42' W 117°09'0 0.0
2015-Feb-25 19:18N 32°42' W 117°09'0 0.0
2015-Feb-25 18:31N 32°42' W 117°09'0 0.0
2015-Feb-25 17:30N 32°42' W 117°09'0 0.0
2015-Feb-25 16:33N 32°42' W 117°09'3 3.3
2015-Feb-25 15:32N 32°39' W 117°07'3 3.2
2015-Feb-25 14:30N 32°42' W 117°09'0 0.0
2015-Feb-25 13:33N 32°42' W 117°09'0 0.0
2015-Feb-25 12:34N 32°42' W 117°09'0 0.0
2015-Feb-25 11:33N 32°42' W 117°09'0 0.0
2015-Feb-25 10:34N 32°42' W 117°09'2 2.4
2015-Feb-25 09:34N 32°43' W 117°12'2 2.4
2015-Feb-25 08:34N 32°42' W 117°09'0 0.0
2015-Feb-25 07:33N 32°42' W 117°09'0 0.0
2015-Feb-25 06:33N 32°42' W 117°09'0 0.0
2015-Feb-25 05:32N 32°42' W 117°09'1 1.3
2015-Feb-25 04:33N 32°42' W 117°10'1 1.3
2015-Feb-25 03:33N 32°42' W 117°09'0 0.0
2015-Feb-25 02:33N 32°42' W 117°09'0 0.0
2015-Feb-25 01:33N 32°42' W 117°09'0 0.0
2015-Feb-25 00:33N 32°42' W 117°09'3 3.3
2015-Feb-24 23:34N 32°39' W 117°07'3 3.3
2015-Feb-24 22:34N 32°42' W 117°09'0 0.0
2015-Feb-24 21:34N 32°42' W 117°09'0 0.0
2015-Feb-24 20:34N 32°42' W 117°09'0 0.0
2015-Feb-24 19:33N 32°42' W 117°09'0 0.0
2015-Feb-24 18:33N 32°42' W 117°09'0 0.0
2015-Feb-24 17:33N 32°42' W 117°09'0 0.0
2015-Feb-24 16:25N 32°42' W 117°09'0 0.0
2015-Feb-24 15:33N 32°42' W 117°09'0 0.0
2015-Feb-24 14:34N 32°42' W 117°09'0 0.0
2015-Feb-24 13:33N 32°42' W 117°09'0 0.0
2015-Feb-24 12:33N 32°42' W 117°09'0 0.0
2015-Feb-24 11:34N 32°42' W 117°09'0 0.0
2015-Feb-24 10:33N 32°42' W 117°09'0 0.0
2015-Feb-24 09:33N 32°42' W 117°09'0 0.0
2015-Feb-24 08:32N 32°42' W 117°09'0 0.0
2015-Feb-24 07:34N 32°42' W 117°09'0 0.0
2015-Feb-24 06:33N 32°42' W 117°09'0 0.0
2015-Feb-24 05:33N 32°42' W 117°09'0 0.0
2015-Feb-24 04:34N 32°42' W 117°09'3 3.1
2015-Feb-24 03:27N 32°39' W 117°07'3 1.8
2015-Feb-24 01:31N 32°42' W 117°09'0 0.0
2015-Feb-24 00:32N 32°42' W 117°09'0 0.0
2015-Feb-23 23:33N 32°42' W 117°09'0 0.0
2015-Feb-23 22:32N 32°42' W 117°09'0 0.0
2015-Feb-23 21:33N 32°42' W 117°09'0 0.0
2015-Feb-23 20:33N 32°42' W 117°09'0 0.0
2015-Feb-23 19:34N 32°42' W 117°09'0 0.0
2015-Feb-23 18:33N 32°42' W 117°09'0 0.0
2015-Feb-23 17:33N 32°42' W 117°09'0 0.0
2015-Feb-23 16:33N 32°42' W 117°09'0 0.0
2015-Feb-23 15:28N 32°42' W 117°09'0 0.0
2015-Feb-23 14:34N 32°42' W 117°09'0 0.0
2015-Feb-23 13:33N 32°42' W 117°09'0 0.0
2015-Feb-23 12:33N 32°42' W 117°09'0 0.0
2015-Feb-23 11:33N 32°42' W 117°09'0 0.0
2015-Feb-23 10:33N 32°42' W 117°09'0 0.0
2015-Feb-23 09:34N 32°42' W 117°09'0 0.0
2015-Feb-23 08:33N 32°42' W 117°09'0 0.0
2015-Feb-23 07:34N 32°42' W 117°09'0 0.0
2015-Feb-23 06:34N 32°42' W 117°09'0 0.0
2015-Feb-23 05:33N 32°42' W 117°09'0 0.0
2015-Feb-23 04:33N 32°42' W 117°09'0 0.0
2015-Feb-23 03:33N 32°42' W 117°09'0 0.0
2015-Feb-23 02:30N 32°42' W 117°09'0 0.0
2015-Feb-23 01:33N 32°42' W 117°09'0 0.0
2015-Feb-23 00:32N 32°42' W 117°09'0 0.0
2015-Feb-22 23:33N 32°42' W 117°09'0 0.0
2015-Feb-22 22:34N 32°42' W 117°09'0 0.0
2015-Feb-22 21:33N 32°42' W 117°09'0 0.0
2015-Feb-22 20:33N 32°42' W 117°09'1 0.8
2015-Feb-22 19:33N 32°42' W 117°10'1 0.8
2015-Feb-22 18:33N 32°42' W 117°09'0 0.0
2015-Feb-22 17:34N 32°42' W 117°09'0 0.0
2015-Feb-22 15:33N 32°42' W 117°09'0 0.0
2015-Feb-22 14:29N 32°42' W 117°09'0 0.0
2015-Feb-22 13:31N 32°42' W 117°09'0 0.0
2015-Feb-22 12:26N 32°42' W 117°09'0 0.0
2015-Feb-22 11:32N 32°42' W 117°09'0 0.0
2015-Feb-22 10:33N 32°42' W 117°09'0 0.0
2015-Feb-22 09:32N 32°42' W 117°09'0 0.0
2015-Feb-22 08:33N 32°42' W 117°09'0 0.0
2015-Feb-22 07:33N 32°42' W 117°09'0 0.0
2015-Feb-22 06:33N 32°42' W 117°09'0 0.0
2015-Feb-22 05:27N 32°42' W 117°09'0 0.0
2015-Feb-22 02:29N 32°42' W 117°09'0 0.0
2015-Feb-22 01:32N 32°42' W 117°09'0 0.0
2015-Feb-21 19:21N 32°42' W 117°09'0 0.0
2015-Feb-21 18:20N 32°42' W 117°09'0 0.0
2015-Feb-21 17:32N 32°42' W 117°09'0 0.0
2015-Feb-21 16:14N 32°42' W 117°09'0 0.0
2015-Feb-21 12:19N 32°42' W 117°09'0 0.0
2015-Feb-21 11:21N 32°42' W 117°09'0 0.0
2015-Feb-21 09:26N 32°42' W 117°09'3 3.0
2015-Feb-21 08:33N 32°40' W 117°07'3 2.2
2015-Feb-21 07:21N 32°42' W 117°09'0 0.0
2015-Feb-21 06:32N 32°42' W 117°09'3 2.9
2015-Feb-21 05:33N 32°39' W 117°07'3 0.9
2015-Feb-21 02:33N 32°42' W 117°09'0 0.0
2015-Feb-21 01:33N 32°42' W 117°09'0 0.0
2015-Feb-21 00:29N 32°42' W 117°09'0 0.0
2015-Feb-20 23:21N 32°42' W 117°09'0 0.0
2015-Feb-20 20:30N 32°42' W 117°09'0 0.0
2015-Feb-20 19:18N 32°42' W 117°09'2 3.0
2015-Feb-20 18:33N 32°40' W 117°07'2 2.1
2015-Feb-20 17:33N 32°42' W 117°09'0 0.1
2015-Feb-20 16:21N 32°42' W 117°09'3 3.3
2015-Feb-20 15:33N 32°40' W 117°07'0 0.5
2015-Feb-20 14:34N 32°40' W 117°08'2 1.6
2015-Feb-20 13:33N 32°41' W 117°09'0 0.3
2015-Feb-20 12:06N 32°42' W 117°09'0 0.0
2015-Feb-20 09:11N 32°42' W 117°09'0 0.0
2015-Feb-20 05:10N 32°42' W 117°09'0 0.0
2015-Feb-20 04:28N 32°42' W 117°09'3 3.3
2015-Feb-20 03:33N 32°39' W 117°07'3 1.5
2015-Feb-20 01:31N 32°42' W 117°09'3 2.9
2015-Feb-20 00:33N 32°39' W 117°07'3 0.9
2015-Feb-19 21:28N 32°42' W 117°09'0 0.0
2015-Feb-19 20:03N 32°42' W 117°09'0 0.0
2015-Feb-19 18:14N 32°42' W 117°09'0 0.0
2015-Feb-19 14:28N 32°42' W 117°09'3 3.1
2015-Feb-19 13:33N 32°39' W 117°07'1 0.6
2015-Feb-19 12:23N 32°39' W 117°07'2 2.3
2015-Feb-19 11:33N 32°41' W 117°08'2 1.4
2015-Feb-19 10:29N 32°42' W 117°09'0 0.0
2015-Feb-19 08:07N 32°42' W 117°09'0 0.0
2015-Feb-19 07:30N 32°42' W 117°09'1 0.4
2015-Feb-19 04:34N 32°41' W 117°08'0 0.3
2015-Feb-19 03:33N 32°41' W 117°08'1 1.0
2015-Feb-19 02:07N 32°42' W 117°09'0 0.0
2015-Feb-19 01:33N 32°42' W 117°09'0 0.0
2015-Feb-19 00:33N 32°42' W 117°09'0 0.0
2015-Feb-18 23:33N 32°42' W 117°09'0 0.0
2015-Feb-18 22:27N 32°42' W 117°09'0 0.0
2015-Feb-18 21:33N 32°42' W 117°09'0 0.0
2015-Feb-18 17:25N 32°42' W 117°09'0 0.0
2015-Feb-18 16:30N 32°42' W 117°09'0 0.0
2015-Feb-18 12:09N 32°42' W 117°09'0 0.0
2015-Feb-18 11:26N 32°42' W 117°09'3 3.1
2015-Feb-18 10:33N 32°39' W 117°07'2 0.3
2015-Feb-18 01:33N 32°41' W 117°09'1 0.9
2015-Feb-18 00:33N 32°41' W 117°08'1 1.3
2015-Feb-17 23:34N 32°42' W 117°09'0 0.0
2015-Feb-17 22:09N 32°42' W 117°09'0 0.0
2015-Feb-17 06:07N 32°42' W 117°09'0 0.0
2015-Feb-17 04:09N 32°42' W 117°09'3 5.1
2015-Feb-17 03:34N 32°39' W 117°07'3 2.6
2015-Feb-17 02:22N 32°42' W 117°09'  
Track history (hours):
 
Tides and Currents Weather Stations Pressure Air Temp Water Temp Dewpoint Dewpoint Depression Visibility Wind Speed Wind Dir Waves Ship Positions

Scout

Owner: CROWLEY MARINE SERVICES INC, SEATTLE, WA. More information available from US FCC via Universal Licensing System and Coast Guard Vessel Documentation Center.

Last reported at 2015-Feb-27 01:30 UTC. Time now 2015-Feb-27 07:34 UTC.
Position N 32°42' W 117°09'.

; draft 5.6 m.

Type: Tug. MMSI: 366764730.

Date/timePositionNaut miles runAvg speedWind from/ knotsBaromVisibWave heightAir tempDewpointWater temp
2015-Feb-27 01:30N 32°42' W 117°09'0 0.0
2015-Feb-26 20:33N 32°42' W 117°09'0 0.0
2015-Feb-26 17:06N 32°42' W 117°09'0 0.0
2015-Feb-26 16:15N 32°42' W 117°09'3 4.4
2015-Feb-26 15:29N 32°39' W 117°07'3 3.7
2015-Feb-26 14:33N 32°42' W 117°09'0 0.0
2015-Feb-26 11:15N 32°42' W 117°09'0 0.0
2015-Feb-26 10:28N 32°42' W 117°09'0 0.0
2015-Feb-26 09:25N 32°42' W 117°09'0 0.1
2015-Feb-26 08:33N 32°42' W 117°09'3 3.4
2015-Feb-26 07:34N 32°39' W 117°07'1 0.9
2015-Feb-26 06:33N 32°40' W 117°08'2 2.2
2015-Feb-26 05:26N 32°42' W 117°09'0 0.0
2015-Feb-26 04:13N 32°42' W 117°09'0 0.0
2015-Feb-26 03:26N 32°42' W 117°09'0 0.0
2015-Feb-26 02:10N 32°42' W 117°09'0 0.0
2015-Feb-26 01:30N 32°42' W 117°09'0 0.0
2015-Feb-26 00:24N 32°42' W 117°09'0 0.5
2015-Feb-25 23:33N 32°42' W 117°10'0 0.4
2015-Feb-25 22:28N 32°42' W 117°09'0 0.0
2015-Feb-25 21:11N 32°42' W 117°09'0 0.0
2015-Feb-25 19:18N 32°42' W 117°09'0 0.0
2015-Feb-25 18:31N 32°42' W 117°09'0 0.0
2015-Feb-25 17:30N 32°42' W 117°09'0 0.0
2015-Feb-25 16:33N 32°42' W 117°09'3 3.3
2015-Feb-25 15:32N 32°39' W 117°07'3 3.2
2015-Feb-25 14:30N 32°42' W 117°09'0 0.0
2015-Feb-25 13:33N 32°42' W 117°09'0 0.0
2015-Feb-25 12:34N 32°42' W 117°09'0 0.0
2015-Feb-25 11:33N 32°42' W 117°09'0 0.0
2015-Feb-25 10:34N 32°42' W 117°09'2 2.4
2015-Feb-25 09:34N 32°43' W 117°12'2 2.4
2015-Feb-25 08:34N 32°42' W 117°09'0 0.0
2015-Feb-25 07:33N 32°42' W 117°09'0 0.0
2015-Feb-25 06:33N 32°42' W 117°09'0 0.0
2015-Feb-25 05:32N 32°42' W 117°09'1 1.3
2015-Feb-25 04:33N 32°42' W 117°10'1 1.3
2015-Feb-25 03:33N 32°42' W 117°09'0 0.0
2015-Feb-25 02:33N 32°42' W 117°09'0 0.0
2015-Feb-25 01:33N 32°42' W 117°09'0 0.0
2015-Feb-25 00:33N 32°42' W 117°09'3 3.3
2015-Feb-24 23:34N 32°39' W 117°07'3 3.3
2015-Feb-24 22:34N 32°42' W 117°09'0 0.0
2015-Feb-24 21:34N 32°42' W 117°09'0 0.0
2015-Feb-24 20:34N 32°42' W 117°09'0 0.0
2015-Feb-24 19:33N 32°42' W 117°09'0 0.0
2015-Feb-24 18:33N 32°42' W 117°09'0 0.0
2015-Feb-24 17:33N 32°42' W 117°09'0 0.0
2015-Feb-24 16:25N 32°42' W 117°09'0 0.0
2015-Feb-24 15:33N 32°42' W 117°09'0 0.0
2015-Feb-24 14:34N 32°42' W 117°09'0 0.0
2015-Feb-24 13:33N 32°42' W 117°09'0 0.0
2015-Feb-24 12:33N 32°42' W 117°09'0 0.0
2015-Feb-24 11:34N 32°42' W 117°09'0 0.0
2015-Feb-24 10:33N 32°42' W 117°09'0 0.0
2015-Feb-24 09:33N 32°42' W 117°09'0 0.0
2015-Feb-24 08:32N 32°42' W 117°09'0 0.0
2015-Feb-24 07:34N 32°42' W 117°09'0 0.0
2015-Feb-24 06:33N 32°42' W 117°09'0 0.0
2015-Feb-24 05:33N 32°42' W 117°09'0 0.0
2015-Feb-24 04:34N 32°42' W 117°09'3 3.1
2015-Feb-24 03:27N 32°39' W 117°07'3 1.8
2015-Feb-24 01:31N 32°42' W 117°09'0 0.0
2015-Feb-24 00:32N 32°42' W 117°09'0 0.0
2015-Feb-23 23:33N 32°42' W 117°09'0 0.0
2015-Feb-23 22:32N 32°42' W 117°09'0 0.0
2015-Feb-23 21:33N 32°42' W 117°09'0 0.0
2015-Feb-23 20:33N 32°42' W 117°09'0 0.0
2015-Feb-23 19:34N 32°42' W 117°09'0 0.0
2015-Feb-23 18:33N 32°42' W 117°09'0 0.0
2015-Feb-23 17:33N 32°42' W 117°09'0 0.0
2015-Feb-23 16:33N 32°42' W 117°09'0 0.0
2015-Feb-23 15:28N 32°42' W 117°09'0 0.0
2015-Feb-23 14:34N 32°42' W 117°09'0 0.0
2015-Feb-23 13:33N 32°42' W 117°09'0 0.0
2015-Feb-23 12:33N 32°42' W 117°09'0 0.0
2015-Feb-23 11:33N 32°42' W 117°09'0 0.0
2015-Feb-23 10:33N 32°42' W 117°09'0 0.0
2015-Feb-23 09:34N 32°42' W 117°09'0 0.0
2015-Feb-23 08:33N 32°42' W 117°09'0 0.0
2015-Feb-23 07:34N 32°42' W 117°09'0 0.0
2015-Feb-23 06:34N 32°42' W 117°09'0 0.0
2015-Feb-23 05:33N 32°42' W 117°09'0 0.0
2015-Feb-23 04:33N 32°42' W 117°09'0 0.0
2015-Feb-23 03:33N 32°42' W 117°09'0 0.0
2015-Feb-23 02:30N 32°42' W 117°09'0 0.0
2015-Feb-23 01:33N 32°42' W 117°09'0 0.0
2015-Feb-23 00:32N 32°42' W 117°09'0 0.0
2015-Feb-22 23:33N 32°42' W 117°09'0 0.0
2015-Feb-22 22:34N 32°42' W 117°09'0 0.0
2015-Feb-22 21:33N 32°42' W 117°09'0 0.0
2015-Feb-22 20:33N 32°42' W 117°09'1 0.8
2015-Feb-22 19:33N 32°42' W 117°10'1 0.8
2015-Feb-22 18:33N 32°42' W 117°09'0 0.0
2015-Feb-22 17:34N 32°42' W 117°09'0 0.0
2015-Feb-22 15:33N 32°42' W 117°09'0 0.0
2015-Feb-22 14:29N 32°42' W 117°09'0 0.0
2015-Feb-22 13:31N 32°42' W 117°09'0 0.0
2015-Feb-22 12:26N 32°42' W 117°09'0 0.0
2015-Feb-22 11:32N 32°42' W 117°09'0 0.0
2015-Feb-22 10:33N 32°42' W 117°09'0 0.0
2015-Feb-22 09:32N 32°42' W 117°09'0 0.0
2015-Feb-22 08:33N 32°42' W 117°09'0 0.0
2015-Feb-22 07:33N 32°42' W 117°09'0 0.0
2015-Feb-22 06:33N 32°42' W 117°09'0 0.0
2015-Feb-22 05:27N 32°42' W 117°09'0 0.0
2015-Feb-22 02:29N 32°42' W 117°09'0 0.0
2015-Feb-22 01:32N 32°42' W 117°09'0 0.0
2015-Feb-21 19:21N 32°42' W 117°09'0 0.0
2015-Feb-21 18:20N 32°42' W 117°09'0 0.0
2015-Feb-21 17:32N 32°42' W 117°09'0 0.0
2015-Feb-21 16:14N 32°42' W 117°09'0 0.0
2015-Feb-21 12:19N 32°42' W 117°09'0 0.0
2015-Feb-21 11:21N 32°42' W 117°09'0 0.0
2015-Feb-21 09:26N 32°42' W 117°09'3 3.0
2015-Feb-21 08:33N 32°40' W 117°07'3 2.2
2015-Feb-21 07:21N 32°42' W 117°09'0 0.0
2015-Feb-21 06:32N 32°42' W 117°09'3 2.9
2015-Feb-21 05:33N 32°39' W 117°07'3 0.9
2015-Feb-21 02:33N 32°42' W 117°09'0 0.0
2015-Feb-21 01:33N 32°42' W 117°09'0 0.0
2015-Feb-21 00:29N 32°42' W 117°09'0 0.0
2015-Feb-20 23:21N 32°42' W 117°09'0 0.0
2015-Feb-20 20:30N 32°42' W 117°09'0 0.0
2015-Feb-20 19:18N 32°42' W 117°09'2 3.0
2015-Feb-20 18:33N 32°40' W 117°07'2 2.1
2015-Feb-20 17:33N 32°42' W 117°09'0 0.1
2015-Feb-20 16:21N 32°42' W 117°09'3 3.3
2015-Feb-20 15:33N 32°40' W 117°07'0 0.5
2015-Feb-20 14:34N 32°40' W 117°08'2 1.6
2015-Feb-20 13:33N 32°41' W 117°09'0 0.3
2015-Feb-20 12:06N 32°42' W 117°09'0 0.0
2015-Feb-20 09:11N 32°42' W 117°09'0 0.0
2015-Feb-20 05:10N 32°42' W 117°09'0 0.0
2015-Feb-20 04:28N 32°42' W 117°09'3 3.3
2015-Feb-20 03:33N 32°39' W 117°07'3 1.5
2015-Feb-20 01:31N 32°42' W 117°09'3 2.9
2015-Feb-20 00:33N 32°39' W 117°07'3 0.9
2015-Feb-19 21:28N 32°42' W 117°09'0 0.0
2015-Feb-19 20:03N 32°42' W 117°09'0 0.0
2015-Feb-19 18:14N 32°42' W 117°09'0 0.0
2015-Feb-19 14:28N 32°42' W 117°09'3 3.1
2015-Feb-19 13:33N 32°39' W 117°07'1 0.6
2015-Feb-19 12:23N 32°39' W 117°07'2 2.3
2015-Feb-19 11:33N 32°41' W 117°08'2 1.4
2015-Feb-19 10:29N 32°42' W 117°09'0 0.0
2015-Feb-19 08:07N 32°42' W 117°09'0 0.0
2015-Feb-19 07:30N 32°42' W 117°09'1 0.4
2015-Feb-19 04:34N 32°41' W 117°08'0 0.3
2015-Feb-19 03:33N 32°41' W 117°08'1 1.0
2015-Feb-19 02:07N 32°42' W 117°09'0 0.0
2015-Feb-19 01:33N 32°42' W 117°09'0 0.0
2015-Feb-19 00:33N 32°42' W 117°09'0 0.0
2015-Feb-18 23:33N 32°42' W 117°09'0 0.0
2015-Feb-18 22:27N 32°42' W 117°09'0 0.0
2015-Feb-18 21:33N 32°42' W 117°09'0 0.0
2015-Feb-18 17:25N 32°42' W 117°09'0 0.0
2015-Feb-18 16:30N 32°42' W 117°09'0 0.0
2015-Feb-18 12:09N 32°42' W 117°09'0 0.0
2015-Feb-18 11:26N 32°42' W 117°09'3 3.1
2015-Feb-18 10:33N 32°39' W 117°07'2 0.3
2015-Feb-18 01:33N 32°41' W 117°09'1 0.9
2015-Feb-18 00:33N 32°41' W 117°08'1 1.3
2015-Feb-17 23:34N 32°42' W 117°09'0 0.0
2015-Feb-17 22:09N 32°42' W 117°09'0 0.0
2015-Feb-17 06:07N 32°42' W 117°09'0 0.0
2015-Feb-17 04:09N 32°42' W 117°09'3 5.1
2015-Feb-17 03:34N 32°39' W 117°07'3 2.6
2015-Feb-17 02:22N 32°42' W 117°09'  

Dump ship's entire track history